This is the latest recevied weather packets stored in our database for station/object W1CAT. If no packets are shown the sender has not sent any weather packets the latest 10 day(s).
| Time | Temp. | Humidity | Pressure | Rain* | Wind** | Luminosity | Snow |
|---|---|---|---|---|---|---|---|
| 1778014983 | 13.89° C | 44% | - | 0 mm | - | - | - |
| 1778014680 | 13.89° C | 44% | - | 0 mm | - | - | - |
| 1778014379 | 14.44° C | 42% | - | 0 mm | - | - | - |
| 1778014075 | 14.44° C | 41% | - | 0 mm | - | - | - |
| 1778013773 | 15° C | 40% | - | 0 mm | - | - | - |
| 1778013470 | 15.56° C | 40% | - | 0 mm | - | - | - |
| 1778013167 | 15° C | 40% | - | 0 mm | - | - | - |
| 1778012862 | 15° C | 40% | - | 0 mm | - | - | - |
| 1778012559 | 14.44° C | 41% | - | 0 mm | - | - | - |
| 1778012255 | 12.78° C | 41% | - | 0 mm | - | - | - |
| 1778011953 | 12.78° C | 42% | - | 0 mm | - | - | - |
| 1778011651 | 13.33° C | 37% | - | 0 mm | - | - | - |
| 1778011348 | 13.33° C | 36% | - | 0 mm | - | - | - |
| 1778011043 | 12.78° C | 38% | - | 0 mm | - | - | - |
| 1778010741 | 13.33° C | 35% | - | 0 mm | - | - | - |
| 1778010438 | 13.89° C | 33% | - | 0 mm | - | - | - |
| 1778010134 | 13.89° C | 32% | - | 0 mm | - | - | - |
| 1778009831 | 13.89° C | 32% | - | 0 mm | - | - | - |
| 1778009528 | 14.44° C | 30% | - | 0 mm | - | - | - |
| 1778009227 | 13.89° C | 32% | - | 0 mm | - | - | - |
| 1778008923 | 13.33° C | 43% | - | 0 mm | - | - | - |
| 1778008622 | 13.89° C | 38% | - | 0 mm | - | - | - |
| 1778008320 | 13.89° C | 40% | - | 0 mm | - | - | - |
| 1778008016 | 14.44° C | 41% | - | 0 mm | - | - | - |
| 1778007715 | 14.44° C | 42% | - | 0 mm | - | - | - |
* Rain latest hour (hover to see other rain measurements)
** Current wind speed in m/s (hover to see current wind gust speed)